createdAt,value
2023-03-20T00:01:13.515Z,9.70
2023-03-20T00:03:40.558Z,9.60
2023-03-20T00:06:23.838Z,9.50
2023-03-20T00:08:53.567Z,9.50
2023-03-20T00:11:33.407Z,9.40
2023-03-20T00:14:12.847Z,9.30
2023-03-20T00:16:42.111Z,9.30
2023-03-20T00:19:19.006Z,9.30
2023-03-20T00:21:47.889Z,9.20
2023-03-20T00:24:15.953Z,9.20
2023-03-20T00:26:44.377Z,9.20
2023-03-20T00:29:19.034Z,9.20
2023-03-20T00:31:45.739Z,9.20
2023-03-20T00:34:15.222Z,9.20
2023-03-20T00:36:42.105Z,9.20
2023-03-20T00:39:09.196Z,9.20
2023-03-20T00:41:38.885Z,9.30
2023-03-20T00:44:26.632Z,9.20
2023-03-20T00:46:59.918Z,9.20
2023-03-20T00:49:29.352Z,9.30
2023-03-20T00:51:56.516Z,9.30
2023-03-20T00:54:23.144Z,9.30
2023-03-20T00:57:05.989Z,9.30
2023-03-20T00:59:37.441Z,9.30
2023-03-20T01:02:04.882Z,9.30
2023-03-20T01:04:38.026Z,9.40
2023-03-20T01:07:06.115Z,9.40
2023-03-20T01:09:33.061Z,9.40
2023-03-20T01:12:04.052Z,9.40
2023-03-20T01:14:30.698Z,9.40
2023-03-20T01:16:57.443Z,9.30
2023-03-20T01:19:24.042Z,9.40
2023-03-20T01:21:51.376Z,9.30
2023-03-20T01:24:18.003Z,9.30
2023-03-20T01:26:46.417Z,9.40
2023-03-20T01:29:31.634Z,9.30
2023-03-20T01:31:58.357Z,9.30
2023-03-20T01:34:25.326Z,9.40
2023-03-20T01:36:54.512Z,9.30
2023-03-20T01:39:24.273Z,9.40
2023-03-20T01:41:52.903Z,9.40
2023-03-20T01:44:30.250Z,9.40
2023-03-20T01:46:58.114Z,9.40
2023-03-20T01:49:24.719Z,9.40
2023-03-20T01:51:52.171Z,9.40
2023-03-20T01:54:29.424Z,9.40
2023-03-20T01:57:34.356Z,9.30
2023-03-20T02:00:05.849Z,9.40
2023-03-20T02:02:33.283Z,9.30
2023-03-20T02:05:07.066Z,9.40
2023-03-20T02:07:36.129Z,9.40
2023-03-20T02:10:09.501Z,9.40
2023-03-20T02:12:37.657Z,9.40
2023-03-20T02:15:07.137Z,9.40
2023-03-20T02:17:34.187Z,9.40
2023-03-20T02:20:31.357Z,9.40
2023-03-20T02:23:34.810Z,9.40
2023-03-20T02:26:04.005Z,9.40
2023-03-20T02:28:47.862Z,9.50
2023-03-20T02:31:48.120Z,9.50
2023-03-20T02:34:29.626Z,9.60
2023-03-20T02:37:43.368Z,9.70
2023-03-20T02:40:16.239Z,9.70
2023-03-20T02:42:51.586Z,9.80
2023-03-20T02:45:28.811Z,9.80
2023-03-20T02:48:13.547Z,9.80
2023-03-20T02:51:24.750Z,9.80
2023-03-20T02:53:53.630Z,9.80
2023-03-20T02:56:36.871Z,9.80
2023-03-20T02:59:20.790Z,9.90
2023-03-20T03:01:52.869Z,9.80
2023-03-20T03:04:26.209Z,9.80
2023-03-20T03:06:55.823Z,9.80
2023-03-20T03:09:47.901Z,9.80
2023-03-20T03:12:21.726Z,9.70
2023-03-20T03:14:55.202Z,9.70
2023-03-20T03:17:26.349Z,9.70
2023-03-20T03:20:00.847Z,9.70
2023-03-20T03:22:27.562Z,9.70
2023-03-20T03:24:54.832Z,9.70
2023-03-20T03:27:34.528Z,9.70
2023-03-20T03:30:29.829Z,9.70
2023-03-20T03:33:10.080Z,9.70
2023-03-20T03:35:37.725Z,9.70
2023-03-20T03:38:13.494Z,9.60
2023-03-20T03:40:53.363Z,9.60
2023-03-20T03:43:36.273Z,9.60
2023-03-20T03:46:12.506Z,9.60
2023-03-20T03:48:45.673Z,9.60
2023-03-20T03:51:17.390Z,9.60
2023-03-20T03:53:59.474Z,9.60
2023-03-20T03:56:29.753Z,9.50
2023-03-20T03:59:01.598Z,9.60
2023-03-20T04:01:29.298Z,9.60
2023-03-20T04:04:01.021Z,9.50
2023-03-20T04:06:28.528Z,9.50
2023-03-20T04:08:55.669Z,9.50
2023-03-20T04:11:24.771Z,9.50
2023-03-20T04:13:52.363Z,9.50
2023-03-20T04:16:20.706Z,9.40
2023-03-20T04:18:47.479Z,9.50
2023-03-20T04:21:15.781Z,9.50
2023-03-20T04:23:42.966Z,9.40
2023-03-20T04:26:09.941Z,9.40
2023-03-20T04:28:36.767Z,9.40
2023-03-20T04:31:03.788Z,9.40
2023-03-20T04:33:30.685Z,9.40
2023-03-20T04:35:57.614Z,9.40
2023-03-20T04:38:24.472Z,9.40
2023-03-20T04:40:51.507Z,9.40
2023-03-20T04:43:18.384Z,9.40
2023-03-20T04:45:45.103Z,9.40
2023-03-20T04:48:11.936Z,9.30
2023-03-20T04:50:38.838Z,9.40
2023-03-20T04:53:05.845Z,9.40
2023-03-20T04:55:32.480Z,9.40
2023-03-20T04:57:59.263Z,9.30
2023-03-20T05:00:26.210Z,9.30
2023-03-20T05:02:52.912Z,9.30
2023-03-20T05:05:19.525Z,9.30
2023-03-20T05:07:46.177Z,9.30
2023-03-20T05:10:13.551Z,9.30
2023-03-20T05:12:40.327Z,9.30
2023-03-20T05:15:07.620Z,9.30
2023-03-20T05:17:34.261Z,9.30
2023-03-20T05:20:00.939Z,9.30
2023-03-20T05:22:27.599Z,9.30
2023-03-20T05:24:54.341Z,9.30
2023-03-20T05:27:21.027Z,9.30
2023-03-20T05:29:47.668Z,9.30
2023-03-20T05:32:14.343Z,9.40
2023-03-20T05:34:41.087Z,9.40
2023-03-20T05:37:07.933Z,9.30
2023-03-20T05:39:34.621Z,9.40
2023-03-20T05:42:01.454Z,9.40
2023-03-20T05:44:28.152Z,9.40
2023-03-20T05:46:57.694Z,9.40
2023-03-20T05:49:24.367Z,9.40
2023-03-20T05:51:51.077Z,9.40
2023-03-20T05:54:17.867Z,9.40
2023-03-20T05:56:44.600Z,9.40
2023-03-20T05:59:12.012Z,9.50
2023-03-20T06:01:38.676Z,9.40
2023-03-20T06:04:05.511Z,9.50
2023-03-20T06:06:32.194Z,9.40
2023-03-20T06:08:58.858Z,9.50
2023-03-20T06:11:25.927Z,9.50
2023-03-20T06:13:54.559Z,9.50
2023-03-20T06:16:21.558Z,9.50
2023-03-20T06:18:49.084Z,9.50
2023-03-20T06:21:15.715Z,9.50
2023-03-20T06:23:42.382Z,9.50
2023-03-20T06:26:09.079Z,9.50
2023-03-20T06:28:35.791Z,9.50
2023-03-20T06:31:02.625Z,9.60
2023-03-20T06:33:29.286Z,9.60
2023-03-20T06:35:56.004Z,9.60
2023-03-20T06:38:22.702Z,9.60
2023-03-20T06:40:49.375Z,9.60
2023-03-20T06:43:16.309Z,9.60
2023-03-20T06:45:43.151Z,9.60
2023-03-20T06:48:09.932Z,9.70
2023-03-20T06:50:37.192Z,9.70
2023-03-20T06:53:04.072Z,9.70
2023-03-20T06:55:31.192Z,9.70
2023-03-20T06:57:57.952Z,9.80
2023-03-20T07:00:24.836Z,9.80
2023-03-20T07:02:51.645Z,9.80
2023-03-20T07:05:18.385Z,9.70
2023-03-20T07:07:45.123Z,9.70
2023-03-20T07:10:12.523Z,9.80
2023-03-20T07:12:39.715Z,9.80
2023-03-20T07:15:07.070Z,9.80
2023-03-20T07:17:33.767Z,9.80
2023-03-20T07:20:00.474Z,9.70
2023-03-20T07:22:29.318Z,9.80
2023-03-20T07:24:56.934Z,9.80
2023-03-20T07:27:24.042Z,9.80
2023-03-20T07:29:50.745Z,9.80
2023-03-20T07:32:17.441Z,9.80
2023-03-20T07:34:44.606Z,9.80
2023-03-20T07:37:11.386Z,9.80
2023-03-20T07:39:38.095Z,9.90
2023-03-20T07:42:04.902Z,9.90
2023-03-20T07:44:31.538Z,9.80
2023-03-20T07:46:58.160Z,9.90
2023-03-20T07:49:24.906Z,9.90
2023-03-20T07:51:54.568Z,9.80
2023-03-20T07:54:21.197Z,9.80
2023-03-20T07:56:47.995Z,9.70
2023-03-20T07:59:15.016Z,9.60
2023-03-20T08:01:41.696Z,9.50
2023-03-20T08:04:08.850Z,9.50
2023-03-20T08:06:35.790Z,9.40
2023-03-20T08:09:03.611Z,9.30
2023-03-20T08:11:32.026Z,9.30
2023-03-20T08:13:59.733Z,9.20
2023-03-20T08:16:26.482Z,9.20
2023-03-20T08:18:53.251Z,9.10
2023-03-20T08:21:20.166Z,9.20
2023-03-20T08:23:46.897Z,9.10
2023-03-20T08:26:13.811Z,9.20
2023-03-20T08:28:47.550Z,9.10
2023-03-20T08:31:16.286Z,9.20
2023-03-20T08:33:43.541Z,9.20
2023-03-20T08:36:10.646Z,9.20
2023-03-20T08:38:37.583Z,9.30
2023-03-20T08:41:06.019Z,9.40
2023-03-20T08:43:32.718Z,9.50
2023-03-20T08:46:00.171Z,9.60
2023-03-20T08:48:26.978Z,9.70
2023-03-20T08:50:53.595Z,9.90
2023-03-20T08:53:22.216Z,10.10
2023-03-20T08:55:49.997Z,10.30
2023-03-20T08:58:17.525Z,10.50
2023-03-20T09:00:44.493Z,10.70
2023-03-20T09:03:14.741Z,10.80
2023-03-20T09:05:44.175Z,10.80
2023-03-20T09:08:10.834Z,10.90
2023-03-20T09:10:37.594Z,11.00
2023-03-20T09:13:23.498Z,11.10
2023-03-20T09:15:51.775Z,11.30
2023-03-20T09:18:20.248Z,11.30
2023-03-20T09:20:48.946Z,11.40
2023-03-20T09:23:15.745Z,11.40
2023-03-20T09:25:42.652Z,11.40
2023-03-20T09:28:09.311Z,11.30
2023-03-20T09:30:36.961Z,11.20
2023-03-20T09:33:03.796Z,11.00
2023-03-20T09:35:31.186Z,10.90
2023-03-20T09:37:57.941Z,10.80
2023-03-20T09:40:27.418Z,10.70
2023-03-20T09:43:06.115Z,10.60
2023-03-20T09:45:49.349Z,10.60
2023-03-20T09:48:21.947Z,10.60
2023-03-20T09:51:00.347Z,10.70
2023-03-20T09:53:41.960Z,10.90
2023-03-20T09:56:23.344Z,11.00
2023-03-20T09:59:01.590Z,11.10
2023-03-20T10:01:42.277Z,11.20
2023-03-20T10:04:10.785Z,11.20
2023-03-20T10:06:37.998Z,11.10
2023-03-20T10:09:34.676Z,11.10
2023-03-20T10:12:28.951Z,11.00
2023-03-20T10:15:03.287Z,10.90
2023-03-20T10:18:05.483Z,10.80
2023-03-20T10:20:41.708Z,10.70
2023-03-20T10:23:20.954Z,10.70
2023-03-20T10:25:52.592Z,10.70
2023-03-20T10:28:43.879Z,10.70
2023-03-20T10:31:25.648Z,10.70
2023-03-20T10:33:55.350Z,10.70
2023-03-20T10:36:51.588Z,10.80
2023-03-20T10:39:33.007Z,10.90
2023-03-20T10:42:02.248Z,11.00
2023-03-20T10:44:34.462Z,11.10
2023-03-20T10:47:03.917Z,11.20
2023-03-20T10:49:53.081Z,11.40
2023-03-20T10:52:26.990Z,11.50
2023-03-20T10:55:01.484Z,11.70
2023-03-20T10:57:32.009Z,12.00
2023-03-20T10:59:59.381Z,12.20
2023-03-20T11:02:30.054Z,12.30
2023-03-20T11:04:59.585Z,12.20
2023-03-20T11:07:37.801Z,12.20
2023-03-20T11:10:08.291Z,12.20
2023-03-20T11:12:36.183Z,12.30
2023-03-20T11:15:15.815Z,12.30
2023-03-20T11:17:42.675Z,12.30
2023-03-20T11:20:14.127Z,12.40
2023-03-20T11:22:41.688Z,12.50
2023-03-20T11:25:24.403Z,12.70
2023-03-20T11:27:51.235Z,12.90
2023-03-20T11:30:18.459Z,13.10
2023-03-20T11:32:50.694Z,13.30
2023-03-20T11:35:31.099Z,13.60
2023-03-20T11:38:14.604Z,13.80
2023-03-20T11:40:41.598Z,13.70
2023-03-20T11:43:14.046Z,13.70
2023-03-20T11:45:47.449Z,13.70
2023-03-20T11:48:21.228Z,13.60
2023-03-20T11:51:03.758Z,13.70
2023-03-20T11:53:35.717Z,13.80
2023-03-20T11:56:02.420Z,13.90
2023-03-20T11:58:29.906Z,13.90
2023-03-20T12:00:58.743Z,13.80
2023-03-20T12:03:40.999Z,13.80
2023-03-20T12:06:19.883Z,13.80
2023-03-20T12:08:56.484Z,14.00
2023-03-20T12:11:45.399Z,14.20
2023-03-20T12:14:20.434Z,14.20
2023-03-20T12:16:51.912Z,14.30
2023-03-20T12:19:24.141Z,14.40
2023-03-20T12:22:04.774Z,14.50
2023-03-20T12:24:49.371Z,14.30
2023-03-20T12:27:28.146Z,14.20
2023-03-20T12:29:54.696Z,14.10
2023-03-20T12:32:43.871Z,13.90
2023-03-20T12:35:18.287Z,13.80
2023-03-20T12:37:45.145Z,13.70
2023-03-20T12:40:16.804Z,13.70
2023-03-20T12:43:15.271Z,13.50
2023-03-20T12:45:51.092Z,13.40
2023-03-20T12:48:23.496Z,13.40
2023-03-20T12:51:02.929Z,13.50
2023-03-20T12:54:06.320Z,13.50
2023-03-20T12:56:59.213Z,13.50
2023-03-20T12:59:57.881Z,13.60
2023-03-20T13:02:33.637Z,13.70
2023-03-20T13:05:11.074Z,13.70
2023-03-20T13:08:12.693Z,13.70
2023-03-20T13:11:05.304Z,13.80
2023-03-20T13:13:47.015Z,13.80
2023-03-20T13:16:31.449Z,13.80
2023-03-20T13:19:19.348Z,13.70
2023-03-20T13:22:14.916Z,13.60
2023-03-20T13:24:56.896Z,13.40
2023-03-20T13:27:54.937Z,13.50
2023-03-20T13:30:35.796Z,13.40
2023-03-20T13:33:44.631Z,13.50
2023-03-20T13:36:47.360Z,13.50
2023-03-20T13:39:31.062Z,13.60
2023-03-20T13:42:00.468Z,13.60
2023-03-20T13:44:30.345Z,13.60
2023-03-20T13:47:05.657Z,13.60
2023-03-20T13:49:48.187Z,13.50
2023-03-20T13:52:21.942Z,13.40
2023-03-20T13:55:22.433Z,13.40
2023-03-20T13:58:17.425Z,13.50
2023-03-20T14:00:55.522Z,13.50
2023-03-20T14:03:28.581Z,13.50
2023-03-20T14:05:56.171Z,13.40
2023-03-20T14:08:36.916Z,13.50
2023-03-20T14:11:22.319Z,13.40
2023-03-20T14:13:56.726Z,13.50
2023-03-20T14:16:23.686Z,13.50
2023-03-20T14:19:27.826Z,13.50
2023-03-20T14:21:56.241Z,13.40
2023-03-20T14:24:26.803Z,13.30
2023-03-20T14:26:58.528Z,13.30
2023-03-20T14:29:35.085Z,13.20
2023-03-20T14:32:14.081Z,13.30
2023-03-20T14:34:58.595Z,13.30
2023-03-20T14:37:54.150Z,13.40
2023-03-20T14:40:31.402Z,13.30
2023-03-20T14:43:01.906Z,13.20
2023-03-20T14:45:37.874Z,13.20
2023-03-20T14:48:32.847Z,13.10
2023-03-20T14:51:07.939Z,13.00
2023-03-20T14:53:34.997Z,13.00
2023-03-20T14:56:02.217Z,13.10
2023-03-20T14:58:37.568Z,13.10
2023-03-20T15:01:06.925Z,13.00
2023-03-20T15:03:34.443Z,13.00
2023-03-20T15:06:05.268Z,12.90
2023-03-20T15:08:36.255Z,12.90
2023-03-20T15:11:11.681Z,12.80
2023-03-20T15:13:40.419Z,12.80
2023-03-20T15:16:13.208Z,12.70
2023-03-20T15:18:45.925Z,12.60
2023-03-20T15:21:15.640Z,12.40
2023-03-20T15:23:46.614Z,12.30
2023-03-20T15:26:18.860Z,12.30
2023-03-20T15:28:47.017Z,12.20
2023-03-20T15:31:32.949Z,12.10
2023-03-20T15:34:01.684Z,12.00
2023-03-20T15:36:31.315Z,11.90
2023-03-20T15:39:11.167Z,11.80
2023-03-20T15:41:38.484Z,11.70
2023-03-20T15:44:34.065Z,11.60
2023-03-20T15:47:11.604Z,11.60
2023-03-20T15:49:43.836Z,11.50
2023-03-20T15:52:27.434Z,11.50
2023-03-20T15:54:57.225Z,11.50
2023-03-20T15:57:35.559Z,11.50
2023-03-20T16:00:25.274Z,11.60
2023-03-20T16:02:52.860Z,11.60
2023-03-20T16:05:24.292Z,11.60
2023-03-20T16:07:50.993Z,11.50
2023-03-20T16:10:32.489Z,11.60
2023-03-20T16:12:59.361Z,11.60
2023-03-20T16:15:31.414Z,11.60
2023-03-20T16:18:04.730Z,11.40
2023-03-20T16:20:41.713Z,11.40
2023-03-20T16:23:09.835Z,11.30
2023-03-20T16:25:37.541Z,11.30
2023-03-20T16:28:07.186Z,11.20
2023-03-20T16:30:35.511Z,11.10
2023-03-20T16:33:10.399Z,11.00
2023-03-20T16:35:42.691Z,10.80
2023-03-20T16:38:24.886Z,10.80
2023-03-20T16:41:01.251Z,10.70
2023-03-20T16:43:31.705Z,10.70
2023-03-20T16:46:05.126Z,10.60
2023-03-20T16:48:34.121Z,10.50
2023-03-20T16:51:17.764Z,10.40
2023-03-20T16:53:49.568Z,10.30
2023-03-20T16:56:29.580Z,10.20
2023-03-20T16:58:57.139Z,10.20
2023-03-20T17:01:27.229Z,10.10
2023-03-20T17:04:11.239Z,10.10
2023-03-20T17:06:43.118Z,10.10
2023-03-20T17:09:12.720Z,10.00
2023-03-20T17:11:47.359Z,9.90
2023-03-20T17:14:14.039Z,10.00
2023-03-20T17:16:40.831Z,9.80
2023-03-20T17:19:14.063Z,9.80
2023-03-20T17:21:41.175Z,9.70
2023-03-20T17:24:08.021Z,9.70
2023-03-20T17:26:34.728Z,9.60
2023-03-20T17:29:01.473Z,9.60
2023-03-20T17:31:28.238Z,9.50
2023-03-20T17:33:55.049Z,9.60
2023-03-20T17:36:24.868Z,9.50
2023-03-20T17:38:51.895Z,9.50
2023-03-20T17:41:19.953Z,9.50
2023-03-20T17:43:47.154Z,9.40
2023-03-20T17:46:21.453Z,9.40
2023-03-20T17:48:55.200Z,9.40
2023-03-20T17:51:21.820Z,9.40
2023-03-20T17:53:48.444Z,9.40
2023-03-20T17:56:16.189Z,9.40
2023-03-20T17:58:45.888Z,9.30
2023-03-20T18:01:13.152Z,9.30
2023-03-20T18:03:40.660Z,9.30
2023-03-20T18:06:08.367Z,9.20
2023-03-20T18:08:35.319Z,9.20
2023-03-20T18:11:02.003Z,9.20
2023-03-20T18:13:29.323Z,9.20
2023-03-20T18:15:58.300Z,9.20
2023-03-20T18:18:25.815Z,9.10
2023-03-20T18:20:54.657Z,9.10
2023-03-20T18:23:21.909Z,9.00
2023-03-20T18:25:48.659Z,9.10
2023-03-20T18:28:22.629Z,9.00
2023-03-20T18:30:49.915Z,9.00
2023-03-20T18:33:17.136Z,8.90
2023-03-20T18:35:44.904Z,8.90
2023-03-20T18:38:15.024Z,8.90
2023-03-20T18:40:47.223Z,8.90
2023-03-20T18:43:13.924Z,8.90
2023-03-20T18:45:41.159Z,8.80
2023-03-20T18:48:13.207Z,8.90
2023-03-20T18:50:42.896Z,8.80
2023-03-20T18:53:10.559Z,8.80
2023-03-20T18:55:38.245Z,8.70
2023-03-20T18:58:06.245Z,8.80
2023-03-20T19:00:40.071Z,8.70
2023-03-20T19:03:08.256Z,8.70
2023-03-20T19:05:34.992Z,8.70
2023-03-20T19:08:03.266Z,8.70
2023-03-20T19:10:36.054Z,8.60
2023-03-20T19:13:05.377Z,8.60
2023-03-20T19:15:35.646Z,8.60
2023-03-20T19:18:04.160Z,8.60
2023-03-20T19:20:37.376Z,8.60
2023-03-20T19:23:06.385Z,8.60
2023-03-20T19:25:33.974Z,8.60
2023-03-20T19:28:01.524Z,8.60
2023-03-20T19:30:40.834Z,8.60
2023-03-20T19:33:07.485Z,8.60
2023-03-20T19:38:22.147Z,8.50
2023-03-20T19:40:54.151Z,8.50
2023-03-20T19:43:22.427Z,8.50
2023-03-20T19:45:51.964Z,8.60
2023-03-20T19:48:27.058Z,8.50
2023-03-20T19:50:55.201Z,8.50
2023-03-20T19:53:24.921Z,8.50
2023-03-20T19:55:53.046Z,8.50
2023-03-20T19:58:19.806Z,8.50
2023-03-20T20:00:59.025Z,8.50
2023-03-20T20:03:27.617Z,8.50
2023-03-20T20:05:54.450Z,8.50
2023-03-20T20:08:39.414Z,8.50
2023-03-20T20:11:11.803Z,8.50
2023-03-20T20:13:57.196Z,8.50
2023-03-20T20:16:25.448Z,8.50
2023-03-20T20:18:52.192Z,8.40
2023-03-20T20:22:09.707Z,8.40
2023-03-20T20:24:05.887Z,8.40
2023-03-20T20:26:39.007Z,8.40
2023-03-20T20:29:08.379Z,8.40
2023-03-20T20:31:35.027Z,8.50
2023-03-20T20:34:48.888Z,8.40
2023-03-20T20:37:40.670Z,8.30
2023-03-20T20:39:35.094Z,8.30
2023-03-20T20:42:01.969Z,8.30
2023-03-20T20:44:28.704Z,8.40
2023-03-20T20:46:55.492Z,8.30
2023-03-20T20:49:22.179Z,8.30
2023-03-20T20:51:49.099Z,8.30
2023-03-20T20:54:16.764Z,8.30
2023-03-20T20:56:43.390Z,8.40
2023-03-20T20:59:10.113Z,8.30
2023-03-20T21:01:36.791Z,8.40
2023-03-20T21:04:03.492Z,8.30
2023-03-20T21:07:03.539Z,8.30
2023-03-20T21:09:17.070Z,8.40
2023-03-20T21:11:43.812Z,8.30
2023-03-20T21:14:10.649Z,8.40
2023-03-20T21:16:37.334Z,8.40
2023-03-20T21:19:04.136Z,8.40
2023-03-20T21:21:31.057Z,8.30
2023-03-20T21:23:58.118Z,8.30
2023-03-20T21:26:25.217Z,8.30
2023-03-20T21:28:52.091Z,8.30
2023-03-20T21:31:29.570Z,8.20
2023-03-20T21:33:57.854Z,8.20
2023-03-20T21:36:24.752Z,8.30
2023-03-20T21:39:09.506Z,8.30
2023-03-20T21:41:38.801Z,8.30
2023-03-20T21:44:16.383Z,8.20
2023-03-20T21:50:30.707Z,8.20
2023-03-20T21:53:00.397Z,8.20
2023-03-20T21:56:10.358Z,8.20
2023-03-20T22:04:00.537Z,8.20
2023-03-20T22:12:30.465Z,8.20
2023-03-20T22:15:25.232Z,8.10
2023-03-20T22:23:43.375Z,8.10
2023-03-20T22:32:11.053Z,8.00
2023-03-20T22:40:21.711Z,8.00
2023-03-20T22:42:52.894Z,7.90
2023-03-20T22:45:13.839Z,7.90
2023-03-20T22:47:40.757Z,7.90
2023-03-20T22:50:08.342Z,8.00
2023-03-20T22:52:48.051Z,7.90
2023-03-20T22:55:16.778Z,7.90
2023-03-20T22:57:52.965Z,7.90
2023-03-20T23:00:30.531Z,7.90
2023-03-20T23:03:06.648Z,8.00
2023-03-20T23:05:38.851Z,8.00
2023-03-20T23:08:07.831Z,8.00
2023-03-20T23:10:35.081Z,8.00
2023-03-20T23:13:01.903Z,8.00
2023-03-20T23:15:28.770Z,8.00
2023-03-20T23:17:55.398Z,8.00
2023-03-20T23:20:22.157Z,8.00
2023-03-20T23:22:49.535Z,8.00
2023-03-20T23:25:27.465Z,8.10
2023-03-20T23:27:58.878Z,8.00
2023-03-20T23:30:30.907Z,8.00
2023-03-20T23:33:05.676Z,8.00
2023-03-20T23:35:32.483Z,8.10
2023-03-20T23:37:59.163Z,8.00
2023-03-20T23:40:25.913Z,8.00
2023-03-20T23:42:52.554Z,8.00
2023-03-20T23:45:20.819Z,8.00
2023-03-20T23:47:48.259Z,8.00
2023-03-20T23:50:26.432Z,8.10
2023-03-20T23:53:03.539Z,8.00
2023-03-20T23:55:35.569Z,8.10
2023-03-20T23:58:02.402Z,8.10
